Time;durP1;ratioP1;P1;durP2;ratioP2;P2;SDS_P1;SDS_P2;PMS_P1;PMS_P2;Temp;Humidity;BMP_temperature;BMP_pressure;BME280_temperature;BME280_humidity;BME280_pressure;Samples;Min_cycle;Max_cycle;Signal;HPM_P1;HPM_P2
2021/12/06 00:01:18;;;;;;;46.73;35.77;;;5.40;99.90;;;;;;5032375;28;20029;-76
2021/12/06 00:03:49;;;;;;;41.17;30.57;;;5.60;99.90;;;;;;5040941;28;20033;-76
2021/12/06 00:06:18;;;;;;;37.27;27.40;;;5.70;99.90;;;;;;5032587;28;20036;-78
2021/12/06 00:08:44;;;;;;;30.03;23.00;;;5.80;99.90;;;;;;5033644;28;20034;-76
2021/12/06 00:11:11;;;;;;;26.43;21.13;;;5.80;99.90;;;;;;5039969;28;20033;-77
2021/12/06 00:13:43;;;;;;;31.53;22.33;;;5.70;99.90;;;;;;5031797;28;20029;-76
2021/12/06 00:16:14;;;;;;;36.33;26.88;;;5.70;99.90;;;;;;5034819;28;20025;-76
2021/12/06 00:18:40;;;;;;;38.10;27.87;;;5.70;99.90;;;;;;5034208;28;20039;-76
2021/12/06 00:21:07;;;;;;;33.70;26.13;;;5.80;99.90;;;;;;5044112;28;20425;-77
2021/12/06 00:23:33;;;;;;;29.73;24.30;;;5.90;99.90;;;;;;5042933;28;20485;-77
2021/12/06 00:26:00;;;;;;;32.97;21.07;;;5.90;99.90;;;;;;5052963;28;20040;-79
2021/12/06 00:28:26;;;;;;;30.67;23.50;;;6.00;99.90;;;;;;5052465;28;20512;-77
2021/12/06 00:30:54;;;;;;;29.60;22.43;;;6.00;99.90;;;;;;5056888;28;20447;-77
2021/12/06 00:33:19;;;;;;;34.20;24.63;;;6.00;99.90;;;;;;5050821;28;20037;-78
2021/12/06 00:35:48;;;;;;;34.70;25.53;;;6.00;99.90;;;;;;5037624;28;20087;-78
2021/12/06 00:38:14;;;;;;;35.80;25.30;;;6.10;99.90;;;;;;5066150;28;20045;-76
2021/12/06 00:40:44;;;;;;;33.23;24.27;;;6.20;99.90;;;;;;5051458;28;20032;-77
2021/12/06 00:43:10;;;;;;;30.20;22.63;;;6.20;99.90;;;;;;5047881;28;20495;-77
2021/12/06 00:45:36;;;;;;;30.03;22.87;;;6.20;99.90;;;;;;5055619;28;20031;-76
2021/12/06 00:48:02;;;;;;;30.30;22.17;;;6.20;99.90;;;;;;5034877;28;20025;-77
2021/12/06 00:50:31;;;;;;;25.93;20.37;;;6.30;99.90;;;;;;5037264;28;20083;-76
2021/12/06 00:52:57;;;;;;;26.37;20.20;;;6.30;99.90;;;;;;5034986;28;20059;-75
2021/12/06 00:55:23;;;;;;;26.43;20.83;;;6.30;99.90;;;;;;5045745;28;20021;-76
2021/12/06 00:57:52;;;;;;;27.00;20.73;;;6.20;99.90;;;;;;5053719;28;20021;-78
2021/12/06 01:00:25;;;;;;;25.40;21.53;;;6.20;99.90;;;;;;5055003;28;20032;-76
2021/12/06 01:02:51;;;;;;;24.55;19.33;;;6.20;99.90;;;;;;5052329;28;20208;-77
2021/12/06 01:05:17;;;;;;;24.10;19.03;;;6.20;99.90;;;;;;5037343;28;20036;-77
2021/12/06 01:07:43;;;;;;;26.27;19.10;;;6.20;99.90;;;;;;5046909;28;20045;-77
2021/12/06 01:10:09;;;;;;;23.80;18.80;;;6.20;99.90;;;;;;5033315;28;20481;-76
2021/12/06 01:12:36;;;;;;;22.60;18.77;;;6.10;99.90;;;;;;5034097;28;20072;-76
2021/12/06 01:15:04;;;;;;;24.10;19.17;;;6.10;99.90;;;;;;5018349;28;20064;-81
2021/12/06 01:17:29;;;;;;;24.40;18.90;;;6.10;99.90;;;;;;5065639;28;20040;-77
2021/12/06 01:19:55;;;;;;;22.73;19.30;;;6.10;99.90;;;;;;5040744;28;20060;-75
2021/12/06 01:22:29;;;;;;;23.10;18.60;;;6.10;99.90;;;;;;5073488;28;20675;-77
2021/12/06 01:25:03;;;;;;;22.07;17.37;;;6.10;99.90;;;;;;5063795;28;20033;-77
2021/12/06 01:40:22;;;;;;;20.40;17.67;;;6.10;99.90;;;;;;5033873;28;20037;-77
2021/12/06 01:42:49;;;;;;;21.43;16.80;;;6.10;99.90;;;;;;5033741;28;20111;-77
2021/12/06 01:45:14;;;;;;;22.90;16.70;;;6.10;99.90;;;;;;5035173;28;20025;-75
2021/12/06 01:47:42;;;;;;;21.53;16.83;;;6.00;99.90;;;;;;5033069;28;20112;-77
2021/12/06 01:50:23;;;;;;;22.53;18.13;;;6.00;99.90;;;;;;5016360;28;20034;-78
2021/12/06 01:52:52;;;;;;;17.90;16.00;;;6.00;99.90;;;;;;5034722;28;20022;-76
2021/12/06 01:55:22;;;;;;;20.30;17.47;;;6.00;99.90;;;;;;5034174;28;20107;-78
2021/12/06 01:57:47;;;;;;;21.17;17.57;;;6.00;99.90;;;;;;5033725;28;20037;-77
2021/12/06 02:00:20;;;;;;;22.37;17.33;;;6.00;99.90;;;;;;5033405;28;20033;-77
2021/12/06 02:02:46;;;;;;;20.45;17.05;;;6.00;99.90;;;;;;5037393;28;20146;-78
2021/12/06 02:05:12;;;;;;;21.67;17.10;;;6.00;99.90;;;;;;5015540;28;20485;-77
2021/12/06 02:07:37;;;;;;;20.20;16.47;;;6.00;99.90;;;;;;5043066;28;20025;-77
2021/12/06 02:10:05;;;;;;;19.20;16.50;;;6.10;99.90;;;;;;5032550;28;20034;-76
2021/12/06 02:12:32;;;;;;;20.47;16.40;;;6.10;99.90;;;;;;5040676;28;20033;-77
2021/12/06 02:15:06;;;;;;;20.13;15.80;;;6.10;99.90;;;;;;5052252;28;20033;-76
2021/12/06 02:17:39;;;;;;;21.53;16.27;;;6.10;99.90;;;;;;5051426;28;20029;-79
2021/12/06 02:20:14;;;;;;;19.02;16.27;;;6.10;99.90;;;;;;5036658;28;20501;-77
2021/12/06 02:22:40;;;;;;;22.17;16.77;;;6.10;99.90;;;;;;5049297;28;20025;-77
2021/12/06 02:25:14;;;;;;;18.83;16.20;;;6.10;99.90;;;;;;5052222;28;20032;-75
2021/12/06 02:27:40;;;;;;;18.93;16.03;;;6.10;99.90;;;;;;5052612;28;20029;-76
2021/12/06 02:30:08;;;;;;;18.10;15.77;;;6.10;99.90;;;;;;5052650;28;20079;-77
2021/12/06 02:32:35;;;;;;;18.63;15.93;;;6.10;99.90;;;;;;5051139;28;20061;-77
2021/12/06 02:35:03;;;;;;;22.73;16.00;;;6.10;99.90;;;;;;5053991;28;20071;-76
2021/12/06 02:37:33;;;;;;;21.57;16.23;;;6.10;99.90;;;;;;5050652;28;20036;-76
2021/12/06 02:40:00;;;;;;;18.90;16.27;;;6.00;99.90;;;;;;5044339;28;20059;-76
2021/12/06 02:42:26;;;;;;;20.27;16.73;;;6.00;99.90;;;;;;5034586;28;20037;-77
2021/12/06 02:44:52;;;;;;;19.30;16.87;;;5.90;99.90;;;;;;5049806;28;20047;-77
2021/12/06 02:47:20;;;;;;;18.07;16.13;;;5.90;99.90;;;;;;5051584;28;20029;-76
2021/12/06 02:49:46;;;;;;;20.57;17.10;;;5.80;99.90;;;;;;5053242;28;20025;-77
2021/12/06 02:52:13;;;;;;;22.40;16.73;;;5.80;99.90;;;;;;5067920;28;20051;-82
2021/12/06 02:54:40;;;;;;;21.03;17.80;;;5.80;99.90;;;;;;5042329;28;20033;-79
2021/12/06 02:59:44;;;;;;;19.73;17.63;;;5.80;99.90;;;;;;5032945;28;20583;-76
2021/12/06 03:02:14;;;;;;;24.13;18.27;;;5.90;99.90;;;;;;5048962;28;20028;-77
2021/12/06 03:04:41;;;;;;;20.97;17.83;;;5.80;99.90;;;;;;5050062;28;20464;-77
2021/12/06 03:07:08;;;;;;;22.37;17.87;;;5.90;99.90;;;;;;5051761;28;20029;-77
2021/12/06 03:09:37;;;;;;;19.27;17.07;;;5.90;99.90;;;;;;5030945;28;20030;-76
2021/12/06 03:12:15;;;;;;;20.90;17.27;;;5.90;99.90;;;;;;5032546;28;20029;-78
2021/12/06 03:14:47;;;;;;;21.53;17.90;;;5.90;99.90;;;;;;5036757;28;20808;-76
2021/12/06 03:17:15;;;;;;;22.83;17.45;;;5.80;99.90;;;;;;5038943;28;20033;-83
2021/12/06 03:19:42;;;;;;;22.33;17.67;;;5.90;99.90;;;;;;5031092;28;20140;-75
2021/12/06 03:22:10;;;;;;;21.83;17.13;;;5.80;99.90;;;;;;5031437;28;20029;-76
2021/12/06 03:24:37;;;;;;;23.30;17.83;;;5.70;99.90;;;;;;5035338;28;20468;-80
2021/12/06 03:27:03;;;;;;;22.57;18.00;;;5.60;99.90;;;;;;5039028;28;20036;-80
2021/12/06 03:29:29;;;;;;;21.63;18.00;;;5.40;99.90;;;;;;5039488;28;20025;-80
2021/12/06 03:31:55;;;;;;;22.80;19.37;;;5.40;99.90;;;;;;5039929;28;20032;-81
2021/12/06 03:34:26;;;;;;;22.70;18.80;;;5.30;99.90;;;;;;5037360;28;20030;-80
2021/12/06 03:36:58;;;;;;;25.53;20.40;;;5.20;99.90;;;;;;5038690;28;20418;-81
2021/12/06 03:39:30;;;;;;;23.13;19.60;;;5.20;99.90;;;;;;5037200;28;20026;-80
2021/12/06 03:42:01;;;;;;;24.17;19.20;;;5.30;99.90;;;;;;5037143;28;20366;-79
2021/12/06 03:44:28;;;;;;;24.17;20.40;;;5.20;99.90;;;;;;5036111;28;20422;-80
2021/12/06 03:47:03;;;;;;;23.93;19.50;;;5.10;99.90;;;;;;5035892;28;20057;-79
2021/12/06 03:49:29;;;;;;;24.20;20.40;;;5.10;99.90;;;;;;5037278;28;20026;-78
2021/12/06 03:51:55;;;;;;;25.37;19.93;;;5.10;99.90;;;;;;5037322;28;20117;-78
2021/12/06 03:54:26;;;;;;;24.00;19.63;;;5.20;99.90;;;;;;5036749;28;20060;-79
2021/12/06 03:56:52;;;;;;;25.00;20.23;;;5.20;99.90;;;;;;5038576;28;20405;-79
2021/12/06 03:59:19;;;;;;;25.20;20.30;;;5.30;99.90;;;;;;5037431;28;20036;-77
2021/12/06 04:01:46;;;;;;;26.80;20.47;;;5.30;99.90;;;;;;5037664;28;20053;-79
2021/12/06 04:04:12;;;;;;;24.50;20.53;;;5.30;99.90;;;;;;5037964;28;20031;-81
2021/12/06 04:06:40;;;;;;;27.33;21.20;;;5.30;99.90;;;;;;5038681;28;20100;-79
2021/12/06 04:09:08;;;;;;;25.97;20.83;;;5.40;99.90;;;;;;5038116;28;20114;-81
2021/12/06 04:11:35;;;;;;;23.57;20.30;;;5.40;99.90;;;;;;5039529;28;20025;-81
2021/12/06 04:14:01;;;;;;;24.53;19.00;;;5.40;99.90;;;;;;5043165;28;20025;-80
2021/12/06 04:16:28;;;;;;;23.63;19.03;;;5.40;99.90;;;;;;5041949;28;20022;-80
2021/12/06 04:18:54;;;;;;;21.97;19.07;;;5.40;99.90;;;;;;5041656;28;20491;-80
2021/12/06 04:21:21;;;;;;;22.63;19.00;;;5.50;99.90;;;;;;5041844;28;20113;-80
2021/12/06 04:23:46;;;;;;;24.30;19.43;;;5.50;99.90;;;;;;5041464;28;20034;-81
2021/12/06 04:26:12;;;;;;;24.93;19.17;;;5.50;99.90;;;;;;5041478;28;20090;-80
2021/12/06 04:28:43;;;;;;;24.47;18.63;;;5.50;99.90;;;;;;5040819;28;20041;-80
2021/12/06 04:31:09;;;;;;;21.93;18.13;;;5.50;99.90;;;;;;5041855;28;20537;-80
2021/12/06 04:33:35;;;;;;;21.20;18.87;;;5.50;99.90;;;;;;5040888;28;20072;-79
2021/12/06 04:36:01;;;;;;;23.33;17.93;;;5.50;99.90;;;;;;5041592;28;20033;-80
2021/12/06 04:38:27;;;;;;;24.63;18.80;;;5.30;99.90;;;;;;5040630;28;20128;-79
2021/12/06 04:40:53;;;;;;;23.33;19.37;;;5.20;99.90;;;;;;5041406;28;20060;-80
2021/12/06 04:43:18;;;;;;;23.27;19.20;;;5.20;99.90;;;;;;5041244;28;20030;-81
2021/12/06 04:45:44;;;;;;;21.50;18.83;;;5.20;99.90;;;;;;5037288;28;20021;-80
2021/12/06 04:48:10;;;;;;;23.93;18.53;;;5.10;99.90;;;;;;5035875;28;20037;-80
2021/12/06 04:50:39;;;;;;;24.07;18.47;;;5.10;99.90;;;;;;5036366;28;20052;-80
2021/12/06 04:53:15;;;;;;;23.13;18.93;;;5.00;99.90;;;;;;5035049;28;20454;-80
2021/12/06 04:55:52;;;;;;;24.53;18.83;;;4.90;99.90;;;;;;5035324;28;20022;-79
2021/12/06 04:58:22;;;;;;;23.27;18.87;;;4.80;99.90;;;;;;5034909;28;20022;-79
2021/12/06 05:01:00;;;;;;;25.17;20.67;;;4.70;99.90;;;;;;5035354;28;20026;-78
2021/12/06 05:03:25;;;;;;;21.33;18.87;;;4.60;99.90;;;;;;5042849;28;20442;-78
2021/12/06 05:06:02;;;;;;;24.47;19.77;;;4.40;99.90;;;;;;5034775;28;20057;-79
2021/12/06 05:08:35;;;;;;;24.03;19.70;;;4.10;99.90;;;;;;5034319;28;20025;-78
2021/12/06 05:11:02;;;;;;;27.70;21.67;;;3.90;99.90;;;;;;5035799;28;20026;-79
2021/12/06 05:13:29;;;;;;;25.60;21.33;;;3.70;99.90;;;;;;5017790;28;20100;-78
2021/12/06 05:15:55;;;;;;;26.80;19.90;;;3.70;99.90;;;;;;5034477;28;20032;-79
2021/12/06 05:18:21;;;;;;;28.67;21.70;;;3.70;99.90;;;;;;5034601;28;20049;-80
2021/12/06 05:20:47;;;;;;;31.10;23.83;;;3.70;99.90;;;;;;5034774;28;20049;-80
2021/12/06 05:23:13;;;;;;;32.13;23.23;;;3.80;99.90;;;;;;5017245;28;20030;-80
2021/12/06 05:25:39;;;;;;;25.83;21.30;;;3.90;99.90;;;;;;5034673;28;20067;-80
2021/12/06 05:28:06;;;;;;;27.50;20.43;;;3.90;99.90;;;;;;5035093;28;20056;-79
2021/12/06 05:30:33;;;;;;;24.40;18.80;;;3.80;99.90;;;;;;5034469;28;20022;-79
2021/12/06 05:33:00;;;;;;;25.10;20.53;;;3.70;99.90;;;;;;5033904;28;20064;-79
2021/12/06 05:35:26;;;;;;;27.80;20.43;;;3.60;99.90;;;;;;5033987;28;20382;-79
2021/12/06 05:37:54;;;;;;;25.30;19.73;;;3.70;99.90;;;;;;5033997;28;20080;-79
2021/12/06 05:40:33;;;;;;;29.50;21.23;;;3.70;99.90;;;;;;5033820;28;20037;-80
2021/12/06 05:43:01;;;;;;;51.10;21.67;;;3.70;99.90;;;;;;5035083;28;20026;-77
2021/12/06 05:45:31;;;;;;;34.17;22.53;;;3.70;99.90;;;;;;5033914;28;20484;-80
2021/12/06 05:47:57;;;;;;;26.20;20.53;;;3.70;99.90;;;;;;5033441;28;20022;-80
2021/12/06 05:50:24;;;;;;;23.30;18.00;;;3.70;99.90;;;;;;5033510;28;20546;-79
2021/12/06 05:52:54;;;;;;;25.73;20.13;;;3.60;99.90;;;;;;5034704;28;20026;-78
2021/12/06 05:55:21;;;;;;;27.40;21.73;;;3.50;99.90;;;;;;5033494;28;20033;-79
2021/12/06 05:57:47;;;;;;;28.27;21.67;;;3.50;99.90;;;;;;5035037;28;20095;-78
2021/12/06 06:00:16;;;;;;;26.87;19.87;;;3.40;99.90;;;;;;5033557;28;20030;-79
2021/12/06 06:02:42;;;;;;;28.50;20.80;;;3.40;99.90;;;;;;5033345;28;20021;-79
2021/12/06 06:05:10;;;;;;;28.23;21.27;;;3.40;99.90;;;;;;5017915;28;20033;-79
2021/12/06 06:07:36;;;;;;;25.90;20.00;;;3.50;99.90;;;;;;5034129;28;20026;-77
2021/12/06 06:10:03;;;;;;;32.63;21.57;;;3.50;99.90;;;;;;5033234;28;20055;-78
2021/12/06 06:12:28;;;;;;;32.40;23.13;;;3.50;99.90;;;;;;5033339;28;20082;-78
2021/12/06 06:14:54;;;;;;;58.70;24.30;;;3.50;99.90;;;;;;5033875;28;20116;-77
2021/12/06 06:17:20;;;;;;;51.10;22.27;;;3.50;99.90;;;;;;5033195;28;20025;-77
2021/12/06 06:19:54;;;;;;;52.67;21.30;;;3.40;99.90;;;;;;5034257;28;20039;-77
2021/12/06 06:22:20;;;;;;;66.80;22.13;;;3.40;99.90;;;;;;5032767;28;20045;-78
2021/12/06 06:24:46;;;;;;;77.90;23.87;;;3.40;99.90;;;;;;5033050;28;20500;-77
2021/12/06 06:27:12;;;;;;;71.33;23.43;;;3.20;99.90;;;;;;5033099;28;20037;-78
2021/12/06 06:29:38;;;;;;;97.87;25.17;;;3.20;99.90;;;;;;5033095;28;20037;-77
2021/12/06 06:32:05;;;;;;;128.53;27.70;;;3.20;99.90;;;;;;5032958;28;20076;-77
2021/12/06 06:34:31;;;;;;;123.33;26.60;;;3.30;99.90;;;;;;5032609;28;20431;-78
2021/12/06 06:36:57;;;;;;;67.93;23.60;;;3.40;99.90;;;;;;5031964;28;20045;-78
2021/12/06 06:39:23;;;;;;;98.07;23.90;;;3.50;99.90;;;;;;5032903;28;20072;-79
2021/12/06 06:41:51;;;;;;;95.30;23.87;;;3.50;99.90;;;;;;5032520;28;20052;-79
2021/12/06 06:44:17;;;;;;;72.50;22.27;;;3.50;99.90;;;;;;5032924;28;20030;-78
2021/12/06 06:46:44;;;;;;;76.73;23.20;;;3.60;99.90;;;;;;5032700;28;20373;-78
2021/12/06 06:49:12;;;;;;;75.83;22.90;;;3.60;99.90;;;;;;5033088;28;20022;-79
2021/12/06 06:51:38;;;;;;;79.77;23.30;;;3.60;99.90;;;;;;5032578;28;20037;-78
2021/12/06 06:54:05;;;;;;;105.90;24.10;;;3.60;99.90;;;;;;5032867;28;20117;-79
2021/12/06 06:56:32;;;;;;;101.00;21.23;;;3.70;99.90;;;;;;5032504;28;20028;-79
2021/12/06 06:58:57;;;;;;;94.90;20.50;;;3.60;99.90;;;;;;5032994;28;20042;-79
2021/12/06 07:01:24;;;;;;;106.53;20.77;;;3.70;99.90;;;;;;5032573;28;20026;-78
2021/12/06 07:03:53;;;;;;;84.37;20.20;;;3.60;99.90;;;;;;5015821;28;20034;-78
2021/12/06 07:06:28;;;;;;;92.57;21.20;;;3.60;99.90;;;;;;5032399;28;20025;-79
2021/12/06 07:08:56;;;;;;;80.93;21.33;;;3.60;99.90;;;;;;5033502;28;20366;-79
2021/12/06 07:11:22;;;;;;;119.33;22.47;;;3.60;99.90;;;;;;5015786;28;20116;-79
2021/12/06 07:13:48;;;;;;;81.53;22.40;;;3.60;99.90;;;;;;5031843;28;20030;-79
2021/12/06 07:16:15;;;;;;;142.57;21.47;;;3.60;99.90;;;;;;5032305;28;20032;-79
2021/12/06 07:18:42;;;;;;;127.27;25.50;;;3.60;99.90;;;;;;5033266;28;20140;-78
2021/12/06 07:21:08;;;;;;;154.60;22.00;;;3.70;99.90;;;;;;5032185;28;20497;-79
2021/12/06 07:23:38;;;;;;;161.23;24.23;;;3.70;99.90;;;;;;5031896;28;20535;-78
2021/12/06 07:26:15;;;;;;;119.50;23.60;;;3.70;99.90;;;;;;5032250;28;20030;-79
2021/12/06 07:28:42;;;;;;;109.90;22.30;;;3.70;99.90;;;;;;5032820;28;20029;-78
2021/12/06 07:31:12;;;;;;;89.90;26.77;;;3.70;99.90;;;;;;5032731;28;20049;-80
2021/12/06 07:33:39;;;;;;;133.33;26.60;;;3.70;99.90;;;;;;5032068;28;20036;-79
2021/12/06 07:36:04;;;;;;;210.70;24.50;;;3.80;99.90;;;;;;5033530;28;20458;-79
2021/12/06 07:38:31;;;;;;;191.33;24.27;;;3.80;99.90;;;;;;5031981;28;20038;-80
2021/12/06 07:40:57;;;;;;;127.23;24.73;;;3.70;99.90;;;;;;5033445;28;20048;-78
2021/12/06 07:43:23;;;;;;;129.73;27.73;;;3.60;99.90;;;;;;5032920;28;20064;-79
2021/12/06 07:45:49;;;;;;;101.07;26.77;;;3.70;99.90;;;;;;5031861;28;20054;-79
2021/12/06 07:48:15;;;;;;;76.97;27.77;;;3.80;99.90;;;;;;5035613;28;20022;-79
2021/12/06 07:50:41;;;;;;;85.27;28.37;;;3.90;99.90;;;;;;5036061;28;20108;-78
2021/12/06 07:53:07;;;;;;;83.60;28.77;;;4.00;99.90;;;;;;5035894;28;20266;-79
2021/12/06 07:55:34;;;;;;;74.40;26.73;;;4.10;99.90;;;;;;5019253;28;20533;-79
2021/12/06 07:58:09;;;;;;;75.10;25.77;;;4.20;99.90;;;;;;5036881;28;20108;-78
2021/12/06 08:00:40;;;;;;;74.07;29.80;;;4.20;99.90;;;;;;5037253;28;20045;-78
2021/12/06 08:03:08;;;;;;;59.80;26.33;;;4.40;99.90;;;;;;5036692;28;20092;-78
2021/12/06 08:05:36;;;;;;;76.20;26.70;;;4.40;99.90;;;;;;5036917;28;20017;-79
2021/12/06 08:08:15;;;;;;;85.43;28.20;;;4.40;99.90;;;;;;5019372;28;20026;-79
2021/12/06 08:10:45;;;;;;;79.57;29.13;;;4.30;99.90;;;;;;5035827;28;20018;-79
2021/12/06 08:13:13;;;;;;;110.33;28.90;;;4.40;99.90;;;;;;5035589;28;20161;-79
2021/12/06 08:15:39;;;;;;;89.60;28.50;;;4.50;99.90;;;;;;5036660;28;20458;-78
2021/12/06 08:18:06;;;;;;;97.20;30.37;;;4.50;99.90;;;;;;5035772;28;20124;-79
2021/12/06 08:20:32;;;;;;;52.63;27.23;;;4.50;99.90;;;;;;5036878;28;20049;-79
2021/12/06 08:22:58;;;;;;;74.10;27.53;;;4.60;99.90;;;;;;5019103;28;20389;-78
2021/12/06 08:25:24;;;;;;;78.17;29.90;;;4.60;99.90;;;;;;5035475;28;20025;-79
2021/12/06 08:27:50;;;;;;;93.73;28.70;;;4.60;99.90;;;;;;5052021;28;20022;-78
2021/12/06 08:30:21;;;;;;;74.20;29.77;;;4.70;99.90;;;;;;5035148;28;20109;-78
2021/12/06 08:32:51;;;;;;;151.73;33.17;;;4.70;99.90;;;;;;5042147;28;20026;-78
2021/12/06 08:35:17;;;;;;;84.90;33.53;;;4.70;99.90;;;;;;5038309;28;20029;-78
2021/12/06 08:37:44;;;;;;;110.80;38.53;;;4.70;99.90;;;;;;5039956;28;20060;-79
2021/12/06 08:40:10;;;;;;;139.23;31.60;;;4.80;99.90;;;;;;5038447;28;20460;-79
2021/12/06 08:42:35;;;;;;;71.27;36.30;;;4.80;99.90;;;;;;5036823;28;20025;-78
2021/12/06 08:45:02;;;;;;;91.60;37.20;;;4.80;99.90;;;;;;5037041;28;20343;-79
2021/12/06 08:47:28;;;;;;;83.90;36.50;;;4.80;99.90;;;;;;5036843;28;20151;-79
2021/12/06 08:49:54;;;;;;;109.80;34.73;;;4.90;99.90;;;;;;5036735;28;20454;-78
2021/12/06 08:52:20;;;;;;;65.90;35.97;;;4.90;99.90;;;;;;5020217;28;20032;-78
2021/12/06 08:54:46;;;;;;;83.47;38.03;;;4.90;99.90;;;;;;5036173;28;20041;-78
2021/12/06 08:57:11;;;;;;;87.33;42.47;;;4.90;99.90;;;;;;5036066;28;20025;-79
2021/12/06 08:59:37;;;;;;;91.33;45.80;;;5.00;99.90;;;;;;5034592;28;20092;-78
2021/12/06 09:02:04;;;;;;;112.33;40.47;;;5.00;99.90;;;;;;5036318;28;20095;-78
2021/12/06 09:04:34;;;;;;;90.03;43.33;;;5.00;99.90;;;;;;5035728;28;20545;-78
2021/12/06 09:07:00;;;;;;;73.23;39.00;;;5.00;99.90;;;;;;5035675;28;20025;-78
2021/12/06 09:09:29;;;;;;;87.87;38.43;;;5.00;99.90;;;;;;5019555;28;20041;-78
2021/12/06 09:11:57;;;;;;;78.73;48.50;;;5.00;99.90;;;;;;5036875;28;20052;-79
2021/12/06 09:14:23;;;;;;;106.63;55.83;;;5.10;99.90;;;;;;5036709;28;20101;-79
2021/12/06 09:16:49;;;;;;;92.37;50.90;;;5.20;99.90;;;;;;5034993;28;20040;-77
2021/12/06 09:19:17;;;;;;;96.30;56.80;;;5.30;99.90;;;;;;5036204;28;20033;-76
2021/12/06 09:21:45;;;;;;;91.10;53.10;;;5.40;99.90;;;;;;5036025;28;20048;-77
2021/12/06 09:24:15;;;;;;;82.93;46.53;;;5.50;99.90;;;;;;5034523;28;20108;-77
2021/12/06 09:26:42;;;;;;;105.43;57.33;;;5.50;99.90;;;;;;5034345;28;20025;-77
2021/12/06 09:29:08;;;;;;;79.03;48.13;;;5.50;99.90;;;;;;5017185;28;20029;-76
2021/12/06 09:31:35;;;;;;;91.27;50.03;;;5.60;99.90;;;;;;5034415;28;20443;-76
2021/12/06 09:34:02;;;;;;;86.97;49.33;;;5.60;99.90;;;;;;5034204;28;20424;-77
2021/12/06 09:36:28;;;;;;;88.40;54.50;;;5.60;99.90;;;;;;5035121;28;20036;-77
2021/12/06 09:38:54;;;;;;;83.17;44.17;;;5.60;99.90;;;;;;5035344;28;20033;-78
2021/12/06 09:41:26;;;;;;;79.47;48.70;;;5.70;99.90;;;;;;5034084;28;20079;-77
2021/12/06 09:43:54;;;;;;;89.63;56.87;;;5.70;99.90;;;;;;5034527;28;20025;-78
2021/12/06 09:46:22;;;;;;;93.83;59.80;;;5.80;99.90;;;;;;5035463;28;20021;-78
2021/12/06 09:48:49;;;;;;;75.37;49.37;;;5.80;99.90;;;;;;5017813;28;20041;-77
2021/12/06 09:51:22;;;;;;;66.63;40.53;;;5.90;99.90;;;;;;5034220;28;20108;-76
2021/12/06 09:53:49;;;;;;;80.70;48.47;;;5.90;99.90;;;;;;5033891;28;20021;-77
2021/12/06 09:56:26;;;;;;;84.30;52.30;;;5.80;99.90;;;;;;5034444;28;20060;-79
2021/12/06 09:58:56;;;;;;;67.07;38.73;;;5.80;99.90;;;;;;5032795;28;20107;-78
2021/12/06 10:01:29;;;;;;;65.23;39.90;;;5.70;99.90;;;;;;5034375;28;20037;-79
2021/12/06 10:03:58;;;;;;;80.38;42.13;;;5.50;99.90;;;;;;5036228;28;20037;-78
2021/12/06 10:06:26;;;;;;;66.50;40.33;;;5.40;99.90;;;;;;5033692;28;20139;-79
2021/12/06 10:08:54;;;;;;;77.73;47.83;;;5.30;99.90;;;;;;5033678;28;20404;-78
2021/12/06 10:11:23;;;;;;;78.60;46.53;;;5.30;99.90;;;;;;5016915;28;20373;-78
2021/12/06 10:13:50;;;;;;;71.37;45.07;;;5.30;99.90;;;;;;5033293;28;20029;-78
2021/12/06 10:16:16;;;;;;;70.80;44.67;;;5.40;99.90;;;;;;5033447;28;20131;-78
2021/12/06 10:18:42;;;;;;;82.87;49.93;;;5.50;99.90;;;;;;5033203;28;20423;-78
2021/12/06 10:21:09;;;;;;;71.87;45.20;;;5.50;99.90;;;;;;5033875;28;20046;-78
2021/12/06 10:23:37;;;;;;;74.40;46.53;;;5.60;99.90;;;;;;5033122;28;20029;-78
2021/12/06 10:26:05;;;;;;;66.13;42.17;;;5.70;99.90;;;;;;5033274;28;20033;-76
2021/12/06 10:28:31;;;;;;;71.93;42.60;;;5.60;99.90;;;;;;5032675;28;20018;-78
2021/12/06 10:31:01;;;;;;;71.70;42.83;;;5.60;99.90;;;;;;5033192;28;20537;-76
2021/12/06 10:33:30;;;;;;;72.47;42.43;;;5.60;99.90;;;;;;5032941;28;20481;-76
2021/12/06 10:35:59;;;;;;;71.27;41.87;;;5.50;99.90;;;;;;5033006;28;20033;-76
2021/12/06 10:38:34;;;;;;;73.80;45.43;;;5.40;99.90;;;;;;5034197;28;20052;-76
2021/12/06 10:41:04;;;;;;;76.27;45.23;;;5.50;99.90;;;;;;5032919;28;20064;-77
2021/12/06 10:43:31;;;;;;;73.33;45.70;;;5.60;99.90;;;;;;5034582;28;20051;-77
2021/12/06 10:45:58;;;;;;;77.67;47.07;;;5.70;99.90;;;;;;5032545;28;20025;-77
2021/12/06 10:48:28;;;;;;;76.03;44.27;;;5.80;99.90;;;;;;5032870;28;20017;-77
2021/12/06 10:50:54;;;;;;;71.47;41.20;;;5.90;99.90;;;;;;5032581;28;20048;-77
2021/12/06 10:53:26;;;;;;;68.57;39.87;;;5.90;99.90;;;;;;5032689;28;20438;-78
2021/12/06 10:55:54;;;;;;;64.68;36.45;;;5.90;99.90;;;;;;5032465;28;20078;-78
2021/12/06 10:58:24;;;;;;;63.23;34.60;;;5.90;99.90;;;;;;5032739;28;20026;-77
2021/12/06 11:00:54;;;;;;;62.97;35.50;;;5.80;99.90;;;;;;5033693;28;20096;-77
2021/12/06 11:03:31;;;;;;;60.37;33.87;;;5.70;99.90;;;;;;5032313;28;20025;-77
2021/12/06 11:06:09;;;;;;;63.87;35.10;;;5.60;99.90;;;;;;5033216;28;20331;-78
2021/12/06 11:08:36;;;;;;;65.07;34.37;;;5.60;99.90;;;;;;5032494;28;20021;-77
2021/12/06 11:11:09;;;;;;;66.67;34.40;;;5.60;99.90;;;;;;5033383;28;20458;-76
2021/12/06 11:13:42;;;;;;;66.70;35.10;;;5.70;99.90;;;;;;5032616;28;20166;-77
2021/12/06 11:16:27;;;;;;;68.68;36.28;;;5.70;99.90;;;;;;5032631;28;20028;-77
2021/12/06 11:18:58;;;;;;;62.13;34.30;;;5.70;99.90;;;;;;5032344;28;20036;-77
2021/12/06 11:21:27;;;;;;;69.37;36.10;;;5.80;99.90;;;;;;5032765;28;20061;-77
2021/12/06 11:24:18;;;;;;;69.13;36.97;;;5.90;99.90;;;;;;5032513;28;20025;-77
2021/12/06 11:27:08;;;;;;;68.37;36.83;;;5.90;99.90;;;;;;5031532;28;20034;-77
2021/12/06 11:29:35;;;;;;;71.33;36.23;;;6.00;99.90;;;;;;5033769;28;20462;-77
2021/12/06 11:32:10;;;;;;;65.90;34.83;;;5.90;99.90;;;;;;5034189;28;20029;-77
2021/12/06 11:34:43;;;;;;;63.77;34.53;;;5.90;99.90;;;;;;5032121;28;20029;-77
2021/12/06 11:37:19;;;;;;;68.82;34.70;;;5.80;99.90;;;;;;5032831;28;20022;-78
2021/12/06 11:39:49;;;;;;;83.33;37.73;;;5.80;99.90;;;;;;5035026;28;20076;-78
2021/12/06 11:42:15;;;;;;;69.97;36.93;;;5.70;99.90;;;;;;5037251;28;20454;-78
2021/12/06 11:44:43;;;;;;;75.90;38.83;;;5.70;99.90;;;;;;5038493;28;20314;-78
2021/12/06 11:47:14;;;;;;;78.87;39.63;;;5.70;99.90;;;;;;5039973;28;20521;-78
2021/12/06 11:49:49;;;;;;;74.70;38.50;;;5.80;99.90;;;;;;5042242;28;20496;-78
2021/12/06 11:52:20;;;;;;;76.80;38.83;;;5.90;99.90;;;;;;5045277;28;20022;-78
2021/12/06 11:54:52;;;;;;;70.73;37.50;;;6.00;99.90;;;;;;5047977;28;20036;-78
2021/12/06 11:57:23;;;;;;;62.20;35.80;;;6.10;99.90;;;;;;5045532;28;20030;-77
2021/12/06 12:00:06;;;;;;;58.73;32.90;;;6.20;99.90;;;;;;5046885;28;20022;-77
2021/12/06 12:02:38;;;;;;;50.13;28.63;;;6.00;99.90;;;;;;5043731;28;20017;-78
2021/12/06 12:05:14;;;;;;;47.83;27.83;;;5.90;99.80;;;;;;5048093;28;20026;-78
2021/12/06 12:08:12;;;;;;;47.47;27.87;;;5.70;99.70;;;;;;5046330;28;20030;-78
2021/12/06 12:10:51;;;;;;;47.97;27.70;;;5.60;99.70;;;;;;5038667;28;20029;-77
2021/12/06 12:13:29;;;;;;;51.33;29.20;;;5.60;99.90;;;;;;5034465;28;20033;-78
2021/12/06 12:15:59;;;;;;;50.77;29.37;;;5.70;99.90;;;;;;5034548;28;20025;-78
2021/12/06 12:18:26;;;;;;;57.80;32.10;;;5.80;99.90;;;;;;5036371;28;20037;-78
2021/12/06 12:20:53;;;;;;;55.60;30.57;;;5.80;99.90;;;;;;5033078;28;20045;-78
2021/12/06 12:23:20;;;;;;;56.23;31.27;;;5.90;99.90;;;;;;5031803;28;20060;-78
2021/12/06 12:25:53;;;;;;;55.70;31.27;;;5.90;99.90;;;;;;5033197;28;20518;-79
2021/12/06 12:30:47;;;;;;;47.77;27.60;;;6.00;99.90;;;;;;5032554;28;19912;-77
2021/12/06 12:33:17;;;;;;;47.00;26.93;;;6.00;99.80;;;;;;5034752;28;20025;-77
2021/12/06 12:35:44;;;;;;;45.10;26.70;;;6.00;99.90;;;;;;5019443;28;20488;-77
2021/12/06 12:38:12;;;;;;;38.80;24.33;;;6.00;99.60;;;;;;5035527;28;20022;-76
2021/12/06 12:40:48;;;;;;;37.40;24.37;;;6.00;99.50;;;;;;5035632;28;20104;-78
2021/12/06 12:43:20;;;;;;;37.37;23.73;;;6.00;99.00;;;;;;5035105;28;20041;-77
2021/12/06 12:45:56;;;;;;;35.15;22.67;;;6.10;99.10;;;;;;5036632;28;20025;-78
2021/12/06 12:48:26;;;;;;;36.73;23.67;;;6.00;98.70;;;;;;5036607;28;20032;-78
2021/12/06 12:51:15;;;;;;;31.93;21.50;;;6.00;98.80;;;;;;5035469;28;20021;-80
2021/12/06 12:54:16;;;;;;;36.67;22.80;;;6.10;98.70;;;;;;5036718;28;20036;-78
2021/12/06 12:56:48;;;;;;;37.27;25.10;;;6.20;98.70;;;;;;5035181;28;20049;-78
2021/12/06 12:59:23;;;;;;;32.95;22.30;;;6.30;99.00;;;;;;5034692;28;20034;-77
2021/12/06 13:02:12;;;;;;;38.50;25.97;;;6.50;98.40;;;;;;5035096;28;20080;-78